createdAt,value
2022-12-14T00:01:37.687Z,22.75
2022-12-14T00:04:04.583Z,21.55
2022-12-14T00:06:33.203Z,21.92
2022-12-14T00:09:02.805Z,22.42
2022-12-14T00:11:29.847Z,23.27
2022-12-14T00:13:59.159Z,24.15
2022-12-14T01:55:29.430Z,19.83
2022-12-14T01:58:15.257Z,19.33
2022-12-14T02:00:43.898Z,19.98
2022-12-14T02:03:17.816Z,20.35
2022-12-14T02:05:51.115Z,20.50
2022-12-14T02:08:19.307Z,19.58
2022-12-14T02:10:47.552Z,20.65
2022-12-14T02:13:27.270Z,19.63
2022-12-14T02:15:54.324Z,20.92
2022-12-14T02:18:25.925Z,19.10
2022-12-14T02:21:03.246Z,20.30
2022-12-14T02:24:09.098Z,19.70
2022-12-14T02:27:08.162Z,20.23
2022-12-14T02:30:00.171Z,20.23
2022-12-14T02:32:47.174Z,20.13
2022-12-14T02:35:35.164Z,21.02
2022-12-14T02:38:08.288Z,20.08
2022-12-14T02:41:04.600Z,21.63
2022-12-14T02:43:33.485Z,20.42
2022-12-14T02:46:02.934Z,21.55
2022-12-14T02:49:09.627Z,20.45
2022-12-14T02:51:51.797Z,20.63
2022-12-14T02:54:28.592Z,20.25
2022-12-14T02:57:04.095Z,19.80
2022-12-14T03:02:03.186Z,20.15
2022-12-14T03:04:30.318Z,21.33
2022-12-14T03:07:02.697Z,20.27
2022-12-14T03:09:31.637Z,21.35
2022-12-14T03:12:07.165Z,21.75
2022-12-14T03:17:20.494Z,20.93
2022-12-14T03:19:55.826Z,20.63
2022-12-14T03:22:37.061Z,21.73
2022-12-14T03:25:12.222Z,20.88
2022-12-14T03:27:43.214Z,21.42
2022-12-14T03:30:14.884Z,22.17
2022-12-14T03:32:47.797Z,23.00
2022-12-14T03:35:27.147Z,22.48
2022-12-14T03:37:58.623Z,23.75
2022-12-14T03:40:37.797Z,23.75
2022-12-14T03:43:25.591Z,23.42
2022-12-14T03:46:14.823Z,23.05
2022-12-14T03:48:45.597Z,23.95
2022-12-14T03:51:21.002Z,23.45
2022-12-14T03:54:07.057Z,22.95
2022-12-14T03:56:42.569Z,24.05
2022-12-14T04:02:02.317Z,21.88
2022-12-14T04:05:08.189Z,22.85
2022-12-14T04:07:52.557Z,22.17
2022-12-14T04:10:43.392Z,21.88
2022-12-14T04:13:34.986Z,20.55
2022-12-14T04:16:26.704Z,19.60
2022-12-14T04:19:02.402Z,20.98
2022-12-14T04:22:21.381Z,21.95
2022-12-14T04:25:18.671Z,19.70
2022-12-14T04:27:52.064Z,19.83
2022-12-14T04:30:19.192Z,20.52
2022-12-14T04:32:51.528Z,22.17
2022-12-14T04:35:26.180Z,22.63
2022-12-14T04:38:14.474Z,21.90
2022-12-14T04:41:04.103Z,23.48
2022-12-14T04:43:36.738Z,22.83
2022-12-14T04:46:09.806Z,21.75
2022-12-14T04:48:42.969Z,23.15
2022-12-14T04:51:22.117Z,22.70
2022-12-14T04:53:53.315Z,24.15
2022-12-14T04:56:30.018Z,22.23
2022-12-14T04:58:56.908Z,23.48
2022-12-14T05:01:38.747Z,23.52
2022-12-14T05:04:30.687Z,23.13
2022-12-14T05:07:16.151Z,23.45
2022-12-14T05:10:06.608Z,25.08
2022-12-14T05:12:39.744Z,25.20
2022-12-14T05:15:18.506Z,25.13
2022-12-14T05:17:45.671Z,25.05
2022-12-14T05:20:18.665Z,26.35
2022-12-14T05:22:45.486Z,25.13
2022-12-14T05:25:12.391Z,26.13
2022-12-14T05:27:39.183Z,24.50
2022-12-14T05:30:06.774Z,25.52
2022-12-14T05:32:34.101Z,25.38
2022-12-14T05:35:01.706Z,26.35
2022-12-14T05:37:28.398Z,26.38
2022-12-14T05:39:55.383Z,26.38
2022-12-14T05:42:22.143Z,26.80
2022-12-14T05:44:48.993Z,25.65
2022-12-14T05:47:15.794Z,25.42
2022-12-14T05:49:42.666Z,25.75
2022-12-14T05:52:09.442Z,25.25
2022-12-14T05:54:36.506Z,25.85
2022-12-14T05:57:03.287Z,25.88
2022-12-14T05:59:32.660Z,26.95
2022-12-14T06:02:00.229Z,26.23
2022-12-14T06:04:27.264Z,25.67
2022-12-14T06:06:54.109Z,25.65
2022-12-14T06:09:21.180Z,23.90
2022-12-14T06:11:48.183Z,25.23
2022-12-14T06:14:15.099Z,24.83
2022-12-14T06:16:43.846Z,23.27
2022-12-14T06:19:11.725Z,25.02
2022-12-14T06:21:41.253Z,25.40
2022-12-14T06:24:10.897Z,24.73
2022-12-14T06:26:40.829Z,23.92
2022-12-14T06:29:11.295Z,29.05
2022-12-14T06:31:38.413Z,27.83
2022-12-14T06:34:05.379Z,27.05
2022-12-14T06:36:37.315Z,24.73
2022-12-14T06:39:07.455Z,26.05
2022-12-14T06:41:34.601Z,24.13
2022-12-14T06:44:19.857Z,24.92
2022-12-14T06:46:47.638Z,24.10
2022-12-14T06:49:16.067Z,24.98
2022-12-14T06:51:43.604Z,25.50
2022-12-14T06:54:12.191Z,25.88
2022-12-14T06:56:40.662Z,23.77
2022-12-14T06:59:08.900Z,25.85
2022-12-14T07:01:36.790Z,25.67
2022-12-14T07:04:04.911Z,27.33
2022-12-14T07:06:35.259Z,25.08
2022-12-14T07:09:02.220Z,24.55
2022-12-14T07:11:30.502Z,23.83
2022-12-14T07:14:00.891Z,25.23
2022-12-14T07:16:29.379Z,24.85
2022-12-14T07:18:56.842Z,24.63
2022-12-14T07:21:25.279Z,24.75
2022-12-14T07:23:53.060Z,25.25
2022-12-14T07:26:25.806Z,26.77
2022-12-14T07:28:53.753Z,24.08
2022-12-14T07:31:25.840Z,25.77
2022-12-14T07:33:58.499Z,24.40
2022-12-14T07:36:27.118Z,26.92
2022-12-14T07:38:55.616Z,25.77
2022-12-14T07:41:28.338Z,25.60
2022-12-14T07:43:55.735Z,25.90
2022-12-14T07:46:24.610Z,26.25
2022-12-14T07:48:54.304Z,25.20
2022-12-14T07:51:24.147Z,24.38
2022-12-14T07:53:51.673Z,25.65
2022-12-14T07:56:21.125Z,26.42
2022-12-14T07:58:48.657Z,25.55
2022-12-14T08:01:21.030Z,25.40
2022-12-14T08:03:56.114Z,25.15
2022-12-14T08:06:25.401Z,25.95
2022-12-14T08:08:53.804Z,25.80
2022-12-14T08:11:23.523Z,25.48
2022-12-14T08:13:54.576Z,25.92
2022-12-14T08:16:21.500Z,25.60
2022-12-14T08:18:48.414Z,25.95
2022-12-14T08:21:17.350Z,25.30
2022-12-14T08:23:44.123Z,26.42
2022-12-14T08:26:10.934Z,26.45
2022-12-14T08:28:37.689Z,24.65
2022-12-14T08:31:16.119Z,25.40
2022-12-14T08:33:44.384Z,25.20
2022-12-14T08:36:17.695Z,26.88
2022-12-14T08:38:44.600Z,26.25
2022-12-14T08:41:14.766Z,25.83
2022-12-14T08:43:41.956Z,23.88
2022-12-14T08:46:09.672Z,24.55
2022-12-14T08:48:38.201Z,23.85
2022-12-14T08:51:07.386Z,24.73
2022-12-14T08:53:35.205Z,24.10
2022-12-14T08:56:13.551Z,23.77
2022-12-14T08:58:41.429Z,25.40
2022-12-14T09:01:13.804Z,24.70
2022-12-14T09:03:45.350Z,23.92
2022-12-14T09:06:14.770Z,25.65
2022-12-14T09:08:41.698Z,23.85
2022-12-14T09:11:12.489Z,25.83
2022-12-14T09:13:40.171Z,26.48
2022-12-14T09:16:10.663Z,24.23
2022-12-14T09:18:37.475Z,25.20
2022-12-14T09:21:04.577Z,26.52
2022-12-14T09:23:33.195Z,24.63
2022-12-14T09:26:18.443Z,26.02
2022-12-14T09:28:48.519Z,24.95
2022-12-14T09:31:17.042Z,25.50
2022-12-14T09:33:44.119Z,25.77
2022-12-14T09:36:17.363Z,24.38
2022-12-14T09:38:50.569Z,25.42
2022-12-14T09:41:40.429Z,25.52
2022-12-14T09:44:24.658Z,25.63
2022-12-14T09:47:18.835Z,24.27
2022-12-14T09:49:55.106Z,24.30
2022-12-14T09:52:46.420Z,25.17
2022-12-14T09:55:38.140Z,23.45
2022-12-14T09:58:13.277Z,24.90
2022-12-14T10:00:52.945Z,24.95
2022-12-14T10:03:35.431Z,25.55
2022-12-14T10:06:36.211Z,24.55
2022-12-14T10:09:26.560Z,24.08
2022-12-14T10:12:01.946Z,22.52
2022-12-14T10:15:09.081Z,22.98
2022-12-14T10:17:58.721Z,21.90
2022-12-14T10:20:42.177Z,22.58
2022-12-14T10:23:23.257Z,24.25
2022-12-14T10:25:54.346Z,22.25
2022-12-14T10:28:53.027Z,23.10
2022-12-14T10:32:06.376Z,24.00
2022-12-14T10:34:34.809Z,23.88
2022-12-14T10:37:22.581Z,22.25
2022-12-14T10:40:17.509Z,24.50
2022-12-14T10:43:17.272Z,24.00
2022-12-14T10:45:50.266Z,22.75
2022-12-14T10:48:31.429Z,24.25
2022-12-14T10:51:07.207Z,23.17
2022-12-14T10:53:45.099Z,23.92
2022-12-14T10:56:19.008Z,25.40
2022-12-14T10:59:17.920Z,24.50
2022-12-14T11:01:47.813Z,24.77
2022-12-14T11:04:31.617Z,23.95
2022-12-14T11:07:01.885Z,22.63
2022-12-14T11:09:29.091Z,23.23
2022-12-14T11:12:05.496Z,23.17
2022-12-14T11:14:33.089Z,23.98
2022-12-14T11:16:59.895Z,24.13
2022-12-14T11:19:27.766Z,24.75
2022-12-14T11:22:21.727Z,24.83
2022-12-14T11:24:49.242Z,23.98
2022-12-14T11:27:21.325Z,21.83
2022-12-14T11:29:50.534Z,22.15
2022-12-14T11:32:23.930Z,21.65
2022-12-14T11:34:59.937Z,21.65
2022-12-14T11:37:30.095Z,21.40
2022-12-14T11:40:03.984Z,22.40
2022-12-14T11:42:31.366Z,21.67
2022-12-14T11:45:26.366Z,23.75
2022-12-14T11:48:22.723Z,21.40
2022-12-14T11:50:50.353Z,22.77
2022-12-14T11:53:19.990Z,22.15
2022-12-14T11:55:58.724Z,22.30
2022-12-14T11:58:29.462Z,23.17
2022-12-14T12:01:06.362Z,23.63
2022-12-14T12:03:48.439Z,24.42
2022-12-14T12:06:22.655Z,24.98
2022-12-14T12:09:03.618Z,24.38
2022-12-14T12:11:33.671Z,23.65
2022-12-14T12:14:33.402Z,23.75
2022-12-14T12:17:00.470Z,23.58
2022-12-14T12:19:30.574Z,23.15
2022-12-14T12:22:00.824Z,23.02
2022-12-14T12:25:00.988Z,23.27
2022-12-14T12:27:29.318Z,24.27
2022-12-14T12:30:07.125Z,23.48
2022-12-14T12:32:49.830Z,23.13
2022-12-14T12:35:46.918Z,24.65
2022-12-14T12:38:29.188Z,22.50
2022-12-14T12:41:24.232Z,22.25
2022-12-14T12:44:29.359Z,22.23
2022-12-14T12:49:53.123Z,23.13
2022-12-14T12:52:29.012Z,23.38
2022-12-14T12:55:18.533Z,23.35
2022-12-14T12:57:50.239Z,23.27
2022-12-14T13:00:25.844Z,22.13
2022-12-14T13:05:47.724Z,25.02
2022-12-14T13:08:20.046Z,24.77
2022-12-14T13:11:17.283Z,25.00
2022-12-14T13:13:37.007Z,24.77
2022-12-14T13:16:11.864Z,24.40
2022-12-14T13:19:08.928Z,22.45
2022-12-14T13:21:37.211Z,22.70
2022-12-14T13:24:06.605Z,23.65
2022-12-14T13:27:12.320Z,22.52
2022-12-14T13:30:04.201Z,22.20
2022-12-14T13:32:42.621Z,22.02
2022-12-14T13:35:33.946Z,21.40
2022-12-14T13:38:09.481Z,20.90
2022-12-14T13:43:27.799Z,21.30
2022-12-14T13:45:55.378Z,20.58
2022-12-14T13:48:28.102Z,19.60
2022-12-14T13:51:05.199Z,20.33
2022-12-14T13:53:40.264Z,21.08
2022-12-14T13:56:07.981Z,20.65
2022-12-14T13:58:44.222Z,20.10
2022-12-14T14:01:36.810Z,21.35
2022-12-14T14:04:21.044Z,20.67
2022-12-14T14:06:49.835Z,21.23
2022-12-14T14:09:47.629Z,19.35
2022-12-14T14:12:34.849Z,21.23
2022-12-14T14:15:25.883Z,21.48
2022-12-14T14:17:55.223Z,22.10
2022-12-14T14:20:44.709Z,21.65
2022-12-14T14:23:14.504Z,23.05
2022-12-14T14:25:52.086Z,21.85
2022-12-14T14:28:23.278Z,22.92
2022-12-14T14:30:56.640Z,24.85
2022-12-14T14:33:47.376Z,24.35
2022-12-14T14:36:30.970Z,24.98
2022-12-14T14:39:01.349Z,23.52
2022-12-14T14:41:36.052Z,24.23
2022-12-14T14:44:17.865Z,25.63
2022-12-14T14:46:49.677Z,24.60
2022-12-14T14:49:22.654Z,24.98
2022-12-14T14:51:50.137Z,24.20
2022-12-14T14:57:34.078Z,24.27
2022-12-14T15:00:02.865Z,23.55
2022-12-14T15:02:32.681Z,23.98
2022-12-14T15:05:17.925Z,23.60
2022-12-14T15:07:48.096Z,23.05
2022-12-14T15:10:34.325Z,23.17
2022-12-14T15:13:08.642Z,23.00
2022-12-14T15:15:59.270Z,22.45
2022-12-14T15:18:31.519Z,23.25
2022-12-14T15:21:01.257Z,23.25
2022-12-14T15:23:36.731Z,24.33
2022-12-14T15:26:16.256Z,23.08
2022-12-14T15:28:47.793Z,23.50
2022-12-14T15:31:14.831Z,23.27
2022-12-14T15:33:43.246Z,24.60
2022-12-14T15:36:18.468Z,22.70
2022-12-14T15:38:53.702Z,23.60
2022-12-14T15:41:23.607Z,25.15
2022-12-14T15:43:55.066Z,23.13
2022-12-14T15:46:30.591Z,25.33
2022-12-14T15:49:03.580Z,24.95
2022-12-14T15:51:36.833Z,25.55
2022-12-14T15:54:06.154Z,25.13
2022-12-14T15:56:45.559Z,25.95
2022-12-14T15:59:31.352Z,26.95
2022-12-14T16:02:43.055Z,25.88
2022-12-14T16:05:16.315Z,26.48
2022-12-14T16:07:47.919Z,26.02
2022-12-14T16:10:35.159Z,26.63
2022-12-14T16:13:25.373Z,27.20
2022-12-14T16:15:52.979Z,29.58
2022-12-14T16:18:20.557Z,28.65
2022-12-14T16:20:57.345Z,27.67
2022-12-14T16:23:31.000Z,27.75
2022-12-14T16:26:03.178Z,27.30
2022-12-14T16:28:37.752Z,29.63
2022-12-14T16:31:17.186Z,28.98
2022-12-14T16:33:44.626Z,28.50
2022-12-14T16:36:27.947Z,28.08
2022-12-14T16:39:04.840Z,28.33
2022-12-14T16:41:45.653Z,29.10
2022-12-14T16:44:22.470Z,28.90
2022-12-14T16:47:01.105Z,29.30
2022-12-14T16:49:34.826Z,28.60
2022-12-14T16:52:27.619Z,30.08
2022-12-14T16:55:13.321Z,28.35
2022-12-14T16:57:47.921Z,28.05
2022-12-14T17:00:36.097Z,30.43
2022-12-14T17:03:08.248Z,28.13
2022-12-14T17:05:38.135Z,28.50
2022-12-14T17:08:06.883Z,26.58
2022-12-14T17:10:34.938Z,28.35
2022-12-14T17:13:03.294Z,28.50
2022-12-14T17:15:33.012Z,28.02
2022-12-14T17:18:02.479Z,27.25
2022-12-14T17:20:31.700Z,29.90
2022-12-14T17:23:01.907Z,26.75
2022-12-14T17:25:30.719Z,26.85
2022-12-14T17:27:57.567Z,27.98
2022-12-14T17:30:25.201Z,27.95
2022-12-14T17:32:53.970Z,28.08
2022-12-14T17:35:26.746Z,27.55
2022-12-14T17:37:53.481Z,28.00
2022-12-14T17:40:20.326Z,27.92
2022-12-14T17:42:52.650Z,27.65
2022-12-14T17:45:29.258Z,29.58
2022-12-14T17:47:56.870Z,29.10
2022-12-14T17:50:25.145Z,30.05
2022-12-14T17:52:52.058Z,28.80
2022-12-14T17:55:24.241Z,29.33
2022-12-14T17:57:51.839Z,28.08
2022-12-14T18:00:43.711Z,29.92
2022-12-14T18:03:12.265Z,28.73
2022-12-14T18:05:46.487Z,27.52
2022-12-14T18:08:16.663Z,28.42
2022-12-14T18:10:43.858Z,28.65
2022-12-14T18:13:12.234Z,27.77
2022-12-14T18:15:43.860Z,27.73
2022-12-14T18:18:17.251Z,27.52
2022-12-14T18:20:50.562Z,28.17
2022-12-14T18:23:18.362Z,27.15
2022-12-14T18:25:48.428Z,27.15
2022-12-14T18:28:15.754Z,25.85
2022-12-14T18:30:49.607Z,26.15
2022-12-14T18:33:26.186Z,25.85
2022-12-14T18:35:54.125Z,25.40
2022-12-14T18:38:21.168Z,28.45
2022-12-14T18:40:50.787Z,25.63
2022-12-14T18:43:26.684Z,27.67
2022-12-14T18:45:54.630Z,27.40
2022-12-14T18:48:22.561Z,26.55
2022-12-14T18:50:50.210Z,26.60
2022-12-14T18:53:19.690Z,27.02
2022-12-14T18:55:47.609Z,27.70
2022-12-14T18:58:18.004Z,28.17
2022-12-14T19:00:46.438Z,27.02
2022-12-14T19:03:15.048Z,27.95
2022-12-14T19:05:42.279Z,27.33
2022-12-14T19:08:10.751Z,27.20
2022-12-14T19:10:40.978Z,26.98
2022-12-14T19:13:10.421Z,26.42
2022-12-14T19:15:37.749Z,26.52
2022-12-14T19:18:04.487Z,26.08
2022-12-14T19:20:31.223Z,28.02
2022-12-14T19:22:58.328Z,28.10
2022-12-14T19:25:25.537Z,26.80
2022-12-14T19:30:39.570Z,26.50
2022-12-14T19:33:06.542Z,26.92
2022-12-14T19:35:33.326Z,26.98
2022-12-14T19:38:00.425Z,26.80
2022-12-14T19:40:27.171Z,26.88
2022-12-14T19:42:54.014Z,26.95
2022-12-14T19:45:20.981Z,27.13
2022-12-14T19:47:47.821Z,27.33
2022-12-14T19:50:15.680Z,25.67
2022-12-14T19:52:43.597Z,26.88
2022-12-14T19:55:11.319Z,26.65
2022-12-14T19:57:39.581Z,26.77
2022-12-14T20:00:07.905Z,27.00
2022-12-14T20:02:34.860Z,27.88
2022-12-14T20:05:01.750Z,27.25
2022-12-14T20:07:28.526Z,28.42
2022-12-14T20:09:55.296Z,27.85
2022-12-14T20:12:22.134Z,26.40
2022-12-14T20:14:49.484Z,27.25
2022-12-14T20:17:16.612Z,28.55
2022-12-14T20:19:43.398Z,28.88
2022-12-14T20:22:10.605Z,28.70
2022-12-14T20:24:38.278Z,27.92
2022-12-14T20:27:05.150Z,27.23
2022-12-14T20:29:32.074Z,27.10
2022-12-14T20:31:58.833Z,28.70
2022-12-14T20:34:25.731Z,28.48
2022-12-14T20:36:52.544Z,28.55
2022-12-14T20:39:19.356Z,27.55
2022-12-14T20:41:46.072Z,28.70
2022-12-14T20:44:14.019Z,29.05
2022-12-14T20:46:44.465Z,27.42
2022-12-14T20:49:14.794Z,28.70
2022-12-14T20:51:42.502Z,27.90
2022-12-14T20:54:13.767Z,29.10
2022-12-14T20:56:40.951Z,27.90
2022-12-14T20:59:08.718Z,27.13
2022-12-14T21:01:37.666Z,28.73
2022-12-14T21:04:05.155Z,27.60
2022-12-14T21:06:33.354Z,28.98
2022-12-14T21:09:09.473Z,28.92
2022-12-14T21:11:56.685Z,26.45
2022-12-14T21:14:25.718Z,30.15
2022-12-14T21:16:52.783Z,27.23
2022-12-14T21:19:19.642Z,27.77
2022-12-14T21:21:53.069Z,29.13
2022-12-14T21:24:52.634Z,28.55
2022-12-14T21:27:09.938Z,27.85
2022-12-14T21:29:36.650Z,27.63
2022-12-14T21:32:04.303Z,28.48
2022-12-14T21:34:31.904Z,28.98
2022-12-14T21:36:59.179Z,28.30
2022-12-14T21:39:25.950Z,28.67
2022-12-14T21:42:10.665Z,29.27
2022-12-14T21:44:38.705Z,30.67
2022-12-14T21:47:07.669Z,32.70
2022-12-14T21:49:37.031Z,31.52
2022-12-14T21:52:07.322Z,31.80
2022-12-14T21:54:34.899Z,33.40
2022-12-14T21:57:20.227Z,32.08
2022-12-14T21:59:46.997Z,31.52
2022-12-14T22:02:22.367Z,31.40
2022-12-14T22:07:18.730Z,30.38
2022-12-14T22:09:49.566Z,32.13
2022-12-14T22:12:18.101Z,32.83
2022-12-14T22:14:45.005Z,33.60
2022-12-14T22:17:13.522Z,34.13
2022-12-14T22:19:40.423Z,32.42
2022-12-14T22:22:07.394Z,34.00
2022-12-14T22:24:34.083Z,32.95
2022-12-14T22:27:00.853Z,32.20
2022-12-14T22:29:27.635Z,33.00
2022-12-14T22:31:54.507Z,33.17
2022-12-14T22:34:22.963Z,34.22
2022-12-14T22:36:51.494Z,33.13
2022-12-14T22:39:18.755Z,34.13
2022-12-14T22:41:46.077Z,33.72
2022-12-14T22:44:13.219Z,32.67
2022-12-14T22:46:40.770Z,34.47
2022-12-14T22:49:08.621Z,33.10
2022-12-14T22:51:35.641Z,34.55
2022-12-14T22:54:02.831Z,32.10
2022-12-14T22:56:29.472Z,32.10
2022-12-14T22:59:03.932Z,32.03
2022-12-14T23:01:32.306Z,32.45
2022-12-14T23:03:59.373Z,31.17
2022-12-14T23:06:26.402Z,33.10
2022-12-14T23:09:11.485Z,30.88
2022-12-14T23:11:57.138Z,30.93
2022-12-14T23:14:42.181Z,31.27
2022-12-14T23:17:27.754Z,30.20
2022-12-14T23:20:13.291Z,32.15
2022-12-14T23:22:58.719Z,32.72
2022-12-14T23:25:44.067Z,32.42
2022-12-14T23:28:29.767Z,31.77
2022-12-14T23:31:16.310Z,32.03
2022-12-14T23:34:01.889Z,34.05
2022-12-14T23:36:47.170Z,30.92
2022-12-14T23:39:32.355Z,30.27
2022-12-14T23:42:17.634Z,31.83
2022-12-14T23:45:03.245Z,30.73
2022-12-14T23:47:49.418Z,30.15
2022-12-14T23:50:35.325Z,29.25
2022-12-14T23:53:27.679Z,30.40
2022-12-14T23:56:13.021Z,31.77
2022-12-14T23:58:58.432Z,30.27
